Time;durP1;ratioP1;P1;durP2;ratioP2;P2;SDS_P1;SDS_P2;PMS_P1;PMS_P2;Temp;Humidity;BMP_temperature;BMP_pressure;BME280_temperature;BME280_humidity;BME280_pressure;Samples;Min_cycle;Max_cycle;Signal;HPM_P1;HPM_P2
2021/05/23 00:01:02;;;;;;;12.85;5.50;;;15.30;69.80;;;;;;5068033;28;21167;-71
2021/05/23 00:03:28;;;;;;;12.82;6.28;;;15.30;69.90;;;;;;5065112;28;20023;-74
2021/05/23 00:05:55;;;;;;;11.40;5.82;;;15.30;69.80;;;;;;5067574;28;20048;-72
2021/05/23 00:08:22;;;;;;;13.00;5.63;;;15.20;69.70;;;;;;5066738;28;20033;-72
2021/05/23 00:10:58;;;;;;;9.30;5.05;;;15.20;69.70;;;;;;5066665;28;20021;-71
2021/05/23 00:13:30;;;;;;;9.98;6.47;;;15.20;69.70;;;;;;5061624;28;20107;-70
2021/05/23 00:16:04;;;;;;;14.68;5.80;;;15.20;69.60;;;;;;5069188;28;20051;-69
2021/05/23 00:18:34;;;;;;;13.85;5.13;;;15.20;69.50;;;;;;5067007;28;20032;-70
2021/05/23 00:21:01;;;;;;;15.18;5.53;;;15.20;69.50;;;;;;5064617;28;20021;-71
2021/05/23 00:23:29;;;;;;;11.10;5.20;;;15.20;69.50;;;;;;5064684;28;20024;-69
2021/05/23 00:25:55;;;;;;;14.07;4.68;;;15.10;69.30;;;;;;5067933;28;20032;-71
2021/05/23 00:28:23;;;;;;;10.10;5.20;;;15.10;69.30;;;;;;5067264;28;20030;-72
2021/05/23 00:30:50;;;;;;;9.73;4.38;;;15.10;69.20;;;;;;5064810;28;20008;-71
2021/05/23 00:33:17;;;;;;;12.40;4.85;;;15.10;69.20;;;;;;5070557;28;20537;-69
2021/05/23 00:35:44;;;;;;;9.68;4.60;;;15.10;69.20;;;;;;5068207;28;20059;-72
2021/05/23 00:38:10;;;;;;;7.18;3.97;;;15.10;69.20;;;;;;5070752;28;20020;-71
2021/05/23 00:40:38;;;;;;;11.52;3.88;;;15.10;69.20;;;;;;5063189;28;20086;-72
2021/05/23 00:43:14;;;;;;;11.73;4.50;;;15.00;69.00;;;;;;5068500;28;20013;-72
2021/05/23 00:45:41;;;;;;;8.60;3.38;;;15.00;69.00;;;;;;5064538;28;20112;-71
2021/05/23 00:48:08;;;;;;;7.05;3.65;;;15.00;68.90;;;;;;5068821;28;20456;-71
2021/05/23 00:50:35;;;;;;;9.27;3.95;;;15.00;68.90;;;;;;5054187;28;20051;-72
2021/05/23 00:53:03;;;;;;;7.25;3.70;;;15.00;68.90;;;;;;5060413;28;20103;-70
2021/05/23 00:55:30;;;;;;;9.63;3.22;;;15.00;68.80;;;;;;5063526;28;20056;-71
2021/05/23 00:57:57;;;;;;;13.45;5.05;;;15.00;69.40;;;;;;5066354;28;20031;-72
2021/05/23 01:00:43;;;;;;;7.47;3.40;;;14.90;68.60;;;;;;5064975;28;20529;-71
2021/05/23 01:03:27;;;;;;;;;;;14.90;68.50;;;;;;5069627;28;20352;-71
2021/05/23 01:05:56;;;;;;;8.30;3.80;;;15.00;68.50;;;;;;5067225;28;20347;-71
2021/05/23 01:08:23;;;;;;;8.13;3.72;;;14.90;68.40;;;;;;5072009;28;20044;-71
2021/05/23 01:11:16;;;;;;;8.07;3.03;;;14.90;68.30;;;;;;5063698;28;20070;-69
2021/05/23 01:13:45;;;;;;;7.60;3.38;;;14.90;68.20;;;;;;5038725;28;20036;-71
2021/05/23 01:16:36;;;;;;;7.30;2.60;;;14.80;68.10;;;;;;5068386;28;20885;-70
2021/05/23 01:19:08;;;;;;;5.72;3.00;;;14.80;68.00;;;;;;5066426;28;20015;-69
2021/05/23 01:21:39;;;;;;;6.60;2.28;;;14.80;67.80;;;;;;5063189;28;20070;-70
2021/05/23 01:24:13;;;;;;;9.82;2.92;;;14.80;67.60;;;;;;5063830;28;20189;-71
2021/05/23 01:26:48;;;;;;;4.45;2.28;;;14.80;67.50;;;;;;5062002;28;20425;-68
2021/05/23 01:29:15;;;;;;;6.28;2.10;;;14.80;67.40;;;;;;5065655;28;20047;-68
2021/05/23 01:31:42;;;;;;;8.23;2.50;;;14.80;67.30;;;;;;5057876;28;20043;-71
2021/05/23 01:34:15;;;;;;;4.45;2.58;;;14.80;67.20;;;;;;5066511;28;20024;-70
2021/05/23 01:36:42;;;;;;;5.68;2.05;;;14.70;67.00;;;;;;5069094;28;20016;-71
2021/05/23 01:39:11;;;;;;;7.03;3.63;;;14.70;66.90;;;;;;5070807;28;20103;-69
2021/05/23 01:41:39;;;;;;;4.88;2.20;;;14.70;66.80;;;;;;5063825;28;20375;-71
2021/05/23 01:44:06;;;;;;;6.72;1.98;;;14.70;66.80;;;;;;5063800;28;20358;-71
2021/05/23 01:46:33;;;;;;;6.07;2.05;;;14.70;66.70;;;;;;5064532;28;20127;-71
2021/05/23 01:49:00;;;;;;;8.10;2.33;;;14.70;66.40;;;;;;5068613;28;20029;-69
2021/05/23 01:51:26;;;;;;;4.32;2.47;;;14.60;66.20;;;;;;5066170;28;20024;-71
2021/05/23 01:53:53;;;;;;;3.10;2.30;;;14.60;66.20;;;;;;5063791;28;20025;-71
2021/05/23 01:56:19;;;;;;;3.53;2.10;;;14.60;66.10;;;;;;5064814;28;20557;-70
2021/05/23 01:58:46;;;;;;;6.10;2.05;;;14.60;66.00;;;;;;5063258;28;20111;-69
2021/05/23 02:01:13;;;;;;;4.18;3.28;;;14.60;65.90;;;;;;5067763;28;20013;-69
2021/05/23 02:03:39;;;;;;;3.30;1.85;;;14.60;65.80;;;;;;5069352;28;20024;-71
2021/05/23 02:06:06;;;;;;;4.88;2.03;;;14.50;65.80;;;;;;5052090;28;20024;-71
2021/05/23 02:08:33;;;;;;;3.67;1.70;;;14.60;65.80;;;;;;5064728;28;20506;-70
2021/05/23 02:11:08;;;;;;;5.70;2.47;;;14.60;65.80;;;;;;5063732;28;20064;-70
2021/05/23 02:13:38;;;;;;;4.22;2.13;;;14.50;65.60;;;;;;5062137;28;20025;-71
2021/05/23 02:16:06;;;;;;;4.57;2.10;;;14.50;65.50;;;;;;5064073;28;20044;-68
2021/05/23 02:18:35;;;;;;;9.25;2.45;;;14.50;65.50;;;;;;5064559;28;20012;-72
2021/05/23 02:21:02;;;;;;;4.57;2.17;;;14.50;65.60;;;;;;5066273;28;20078;-70
2021/05/23 02:23:29;;;;;;;9.27;2.67;;;14.50;65.60;;;;;;5066522;28;20483;-68
2021/05/23 02:25:56;;;;;;;6.07;2.95;;;14.40;65.50;;;;;;5064248;28;20456;-69
2021/05/23 02:28:23;;;;;;;7.28;2.38;;;14.40;65.40;;;;;;5065993;28;20028;-70
2021/05/23 02:30:55;;;;;;;6.65;2.13;;;14.40;65.40;;;;;;5063674;28;20078;-71
2021/05/23 02:33:24;;;;;;;7.47;2.85;;;14.40;65.40;;;;;;5065184;28;20414;-71
2021/05/23 02:35:53;;;;;;;6.97;2.47;;;14.40;65.40;;;;;;5059022;28;20021;-71
2021/05/23 02:38:20;;;;;;;6.28;2.50;;;14.40;65.30;;;;;;5068190;28;20049;-71
2021/05/23 02:40:48;;;;;;;6.15;2.60;;;14.40;65.20;;;;;;5068048;28;20365;-71
2021/05/23 02:43:16;;;;;;;9.52;3.40;;;14.40;65.10;;;;;;5070184;28;20021;-68
2021/05/23 02:45:43;;;;;;;19.30;6.55;;;14.30;64.90;;;;;;5061653;28;20017;-67
2021/05/23 02:48:10;;;;;;;27.90;19.60;;;14.30;64.80;;;;;;5063406;28;20040;-68
2021/05/23 02:50:40;;;;;;;35.08;22.85;;;14.30;64.80;;;;;;5068472;28;20095;-71
2021/05/23 02:53:07;;;;;;;26.50;16.75;;;14.40;64.90;;;;;;5065265;28;20479;-70
2021/05/23 02:55:36;;;;;;;17.40;12.80;;;14.30;65.00;;;;;;5061209;28;20016;-71
2021/05/23 02:58:03;;;;;;;13.40;9.23;;;14.40;65.00;;;;;;5054272;28;20104;-71
2021/05/23 03:00:29;;;;;;;11.05;6.93;;;14.30;65.00;;;;;;5068826;28;20335;-71
2021/05/23 03:02:56;;;;;;;10.85;6.32;;;14.30;65.00;;;;;;5062601;28;20021;-72
2021/05/23 03:05:23;;;;;;;7.53;4.72;;;14.30;65.00;;;;;;5067011;28;20108;-71
2021/05/23 03:07:57;;;;;;;9.13;4.70;;;14.30;65.00;;;;;;5062092;28;20021;-72
2021/05/23 03:10:34;;;;;;;8.75;4.50;;;14.30;65.10;;;;;;5066705;28;20103;-71
2021/05/23 03:13:03;;;;;;;6.25;4.53;;;14.30;65.20;;;;;;5067030;28;20016;-72
2021/05/23 03:15:30;;;;;;;8.20;3.83;;;14.30;65.20;;;;;;5067383;28;20024;-68
2021/05/23 03:17:56;;;;;;;9.75;4.47;;;14.30;65.20;;;;;;5069161;28;20158;-71
2021/05/23 03:20:25;;;;;;;11.02;4.05;;;14.20;65.10;;;;;;5064685;28;20376;-70
2021/05/23 03:22:54;;;;;;;7.72;3.60;;;14.20;65.00;;;;;;5062544;28;20032;-71
2021/05/23 03:25:22;;;;;;;11.25;5.25;;;14.20;65.10;;;;;;5064220;28;20047;-68
2021/05/23 03:27:48;;;;;;;8.85;4.13;;;14.20;65.20;;;;;;5059462;28;20013;-69
2021/05/23 03:30:26;;;;;;;7.32;3.60;;;14.20;65.20;;;;;;5063382;28;20486;-70
2021/05/23 03:32:53;;;;;;;8.38;3.45;;;14.20;65.30;;;;;;5060872;28;20489;-70
2021/05/23 03:35:19;;;;;;;5.95;4.10;;;14.20;65.20;;;;;;5068692;28;20028;-69
2021/05/23 03:37:46;;;;;;;11.95;4.05;;;14.10;65.20;;;;;;5063796;28;20032;-68
2021/05/23 03:40:15;;;;;;;6.05;3.20;;;14.20;65.20;;;;;;5065340;28;20044;-70
2021/05/23 03:42:46;;;;;;;9.20;4.68;;;14.10;65.20;;;;;;5068480;28;20035;-68
2021/05/23 03:45:15;;;;;;;10.82;7.05;;;14.20;65.30;;;;;;5066947;28;20066;-70
2021/05/23 03:47:42;;;;;;;14.30;8.68;;;14.10;65.20;;;;;;5060288;28;20024;-70
2021/05/23 03:50:11;;;;;;;10.13;7.25;;;14.10;65.30;;;;;;5064815;28;20040;-72
2021/05/23 03:52:38;;;;;;;8.55;6.05;;;14.10;65.10;;;;;;5064724;28;20019;-71
2021/05/23 03:55:06;;;;;;;11.65;5.10;;;14.10;65.20;;;;;;5059426;28;20403;-71
2021/05/23 03:57:32;;;;;;;8.20;5.60;;;14.10;65.10;;;;;;5063873;28;20091;-70
2021/05/23 03:59:59;;;;;;;6.13;4.68;;;14.10;65.10;;;;;;5059479;28;20031;-73
2021/05/23 04:02:25;;;;;;;4.10;3.70;;;14.00;65.10;;;;;;5063215;28;20028;-71
2021/05/23 04:04:58;;;;;;;6.22;4.22;;;14.10;65.10;;;;;;5065251;28;20392;-72
2021/05/23 04:07:26;;;;;;;8.65;4.25;;;14.00;65.00;;;;;;5065866;28;20024;-72
2021/05/23 04:09:54;;;;;;;6.50;3.25;;;14.00;65.50;;;;;;5062143;28;20040;-71
2021/05/23 04:12:32;;;;;;;7.30;3.28;;;14.00;64.80;;;;;;5065009;28;20070;-72
2021/05/23 04:14:58;;;;;;;5.43;3.08;;;14.00;64.80;;;;;;5067362;28;20108;-71
2021/05/23 04:17:27;;;;;;;5.65;3.40;;;14.00;64.80;;;;;;5069450;28;20028;-72
2021/05/23 04:19:53;;;;;;;3.08;2.67;;;14.00;64.80;;;;;;5069600;28;20467;-71
2021/05/23 04:22:20;;;;;;;3.90;2.90;;;14.00;64.60;;;;;;5064732;28;20036;-72
2021/05/23 04:24:46;;;;;;;3.05;2.45;;;14.00;64.40;;;;;;5068293;28;20040;-68
2021/05/23 04:27:13;;;;;;;10.18;3.25;;;14.00;64.30;;;;;;5071081;28;20108;-71
2021/05/23 04:29:39;;;;;;;5.07;3.20;;;13.90;64.10;;;;;;5062822;28;20515;-70
2021/05/23 04:32:07;;;;;;;6.00;2.53;;;13.90;64.00;;;;;;5068631;28;20036;-68
2021/05/23 04:34:36;;;;;;;4.90;2.85;;;13.90;64.00;;;;;;5065331;28;20021;-72
2021/05/23 04:37:03;;;;;;;5.03;2.63;;;13.90;64.00;;;;;;5069050;28;20017;-71
2021/05/23 04:39:31;;;;;;;5.57;2.85;;;13.90;64.00;;;;;;5069419;28;20043;-70
2021/05/23 04:41:58;;;;;;;11.43;7.13;;;13.90;64.00;;;;;;5067510;28;20052;-71
2021/05/23 04:44:25;;;;;;;18.27;12.90;;;13.90;64.00;;;;;;5069242;28;20047;-72
2021/05/23 04:46:51;;;;;;;18.75;12.30;;;13.90;64.00;;;;;;5067902;28;20021;-70
2021/05/23 04:49:18;;;;;;;12.95;10.32;;;13.90;63.90;;;;;;5054056;28;20478;-72
2021/05/23 04:51:44;;;;;;;11.13;8.63;;;13.80;63.80;;;;;;5070305;28;20114;-72
2021/05/23 04:54:11;;;;;;;12.57;7.18;;;13.80;63.70;;;;;;5071295;28;20063;-71
2021/05/23 04:56:38;;;;;;;8.70;6.82;;;13.80;63.70;;;;;;5068809;28;20044;-68
2021/05/23 04:59:04;;;;;;;10.10;6.40;;;13.80;63.80;;;;;;5051483;28;20085;-73
2021/05/23 05:02:10;;;;;;;6.40;5.57;;;13.80;64.50;;;;;;5070721;28;20107;-73
2021/05/23 05:05:19;;;;;;;6.93;4.85;;;13.80;63.80;;;;;;5068308;28;20391;-70
2021/05/23 05:07:45;;;;;;;8.43;4.93;;;13.80;63.90;;;;;;5068689;28;20028;-69
2021/05/23 05:10:12;;;;;;;5.72;3.80;;;13.80;63.70;;;;;;5070045;28;20032;-73
2021/05/23 05:12:40;;;;;;;6.03;3.40;;;13.80;63.70;;;;;;5067140;28;20033;-70
2021/05/23 05:15:08;;;;;;;12.43;10.02;;;13.80;63.70;;;;;;5068013;28;20021;-69
2021/05/23 05:17:35;;;;;;;30.67;22.15;;;13.70;63.80;;;;;;5066900;28;20510;-72
2021/05/23 05:20:02;;;;;;;26.63;18.30;;;13.70;63.80;;;;;;5065707;28;20021;-69
2021/05/23 05:22:29;;;;;;;16.90;12.05;;;13.70;63.80;;;;;;5070510;28;20069;-69
2021/05/23 05:24:55;;;;;;;11.57;9.65;;;13.70;63.80;;;;;;5074197;28;20393;-72
2021/05/23 05:27:25;;;;;;;9.70;6.93;;;13.70;63.70;;;;;;5069027;28;20021;-70
2021/05/23 05:29:51;;;;;;;6.55;4.47;;;13.70;63.70;;;;;;5068654;28;20032;-70
2021/05/23 05:32:18;;;;;;;6.47;3.30;;;13.70;63.60;;;;;;5064809;28;20116;-72
2021/05/23 05:34:44;;;;;;;4.05;2.90;;;13.70;63.60;;;;;;5062635;28;20012;-70
2021/05/23 05:37:11;;;;;;;8.23;2.65;;;13.70;63.60;;;;;;5065558;28;20070;-71
2021/05/23 05:39:38;;;;;;;4.45;2.25;;;13.60;63.60;;;;;;5060082;28;20017;-71
2021/05/23 05:42:04;;;;;;;5.07;2.58;;;13.60;63.70;;;;;;5054410;28;20021;-72
2021/05/23 05:44:31;;;;;;;7.30;3.47;;;13.70;63.90;;;;;;5060661;28;20016;-74
2021/05/23 05:46:57;;;;;;;3.40;2.58;;;13.60;64.10;;;;;;5054031;28;20020;-71
2021/05/23 05:49:24;;;;;;;5.63;3.55;;;13.60;64.10;;;;;;5059627;28;20036;-70
2021/05/23 05:51:51;;;;;;;6.75;3.05;;;13.60;64.10;;;;;;5053496;28;20017;-70
2021/05/23 05:54:17;;;;;;;14.07;9.52;;;13.60;64.20;;;;;;5060052;28;20552;-70
2021/05/23 05:56:44;;;;;;;21.23;14.60;;;13.60;64.40;;;;;;5057269;28;20017;-70
2021/05/23 05:59:11;;;;;;;16.50;12.30;;;13.60;64.40;;;;;;5055616;28;20048;-68
2021/05/23 06:01:38;;;;;;;14.27;9.27;;;13.60;64.40;;;;;;5035745;28;20526;-71
2021/05/23 06:04:04;;;;;;;10.45;6.97;;;13.60;64.40;;;;;;5053825;28;20107;-69
2021/05/23 06:06:32;;;;;;;7.53;5.22;;;13.60;64.40;;;;;;5055557;28;20025;-71
2021/05/23 06:08:59;;;;;;;8.50;5.38;;;13.60;64.40;;;;;;5051987;28;20091;-69
2021/05/23 06:11:26;;;;;;;4.55;4.10;;;13.60;64.50;;;;;;5054881;28;20032;-71
2021/05/23 06:13:53;;;;;;;7.05;3.35;;;13.60;64.60;;;;;;5052708;28;20070;-71
2021/05/23 06:16:19;;;;;;;5.30;3.60;;;13.60;64.80;;;;;;5058502;28;20816;-70
2021/05/23 06:18:46;;;;;;;5.15;3.45;;;13.50;64.80;;;;;;5055501;28;20025;-69
2021/05/23 06:21:13;;;;;;;11.63;3.17;;;13.60;65.00;;;;;;5043625;28;20487;-70
2021/05/23 06:23:39;;;;;;;7.82;3.65;;;13.60;65.10;;;;;;5074527;28;20024;-70
2021/05/23 06:26:46;;;;;;;11.75;6.00;;;13.60;65.30;;;;;;5054255;28;20025;-69
2021/05/23 06:29:52;;;;;;;12.88;9.05;;;13.50;65.50;;;;;;5055000;28;20087;-70
2021/05/23 06:32:19;;;;;;;11.52;7.90;;;13.50;65.90;;;;;;5063585;28;20498;-71
2021/05/23 06:34:45;;;;;;;14.95;7.53;;;13.60;66.20;;;;;;5056834;28;20435;-69
2021/05/23 06:37:12;;;;;;;10.43;5.85;;;13.60;66.50;;;;;;5060169;28;20027;-70
2021/05/23 06:39:39;;;;;;;7.72;5.03;;;13.60;66.70;;;;;;5058489;28;20024;-70
2021/05/23 06:42:06;;;;;;;7.35;4.38;;;13.60;66.80;;;;;;5055580;28;20024;-70
2021/05/23 06:44:32;;;;;;;7.15;3.95;;;13.60;67.10;;;;;;5058530;28;20019;-70
2021/05/23 06:46:59;;;;;;;8.70;4.43;;;13.60;67.30;;;;;;5055322;28;20048;-70
2021/05/23 06:49:26;;;;;;;8.65;4.45;;;13.60;67.70;;;;;;5054908;28;20036;-68
2021/05/23 06:51:53;;;;;;;7.47;4.35;;;13.60;68.00;;;;;;5057174;28;20029;-69
2021/05/23 06:54:20;;;;;;;7.55;5.80;;;13.60;68.20;;;;;;5061379;28;20075;-70
2021/05/23 06:56:47;;;;;;;10.15;4.95;;;13.70;68.40;;;;;;5056779;28;20353;-70
2021/05/23 06:59:13;;;;;;;6.60;5.05;;;13.70;68.70;;;;;;5058744;28;20024;-76
2021/05/23 07:01:40;;;;;;;5.88;4.95;;;13.70;69.10;;;;;;5057565;28;20020;-70
2021/05/23 07:04:07;;;;;;;9.98;5.03;;;13.70;69.30;;;;;;5058909;28;20020;-73
2021/05/23 07:06:33;;;;;;;6.88;5.03;;;13.70;69.50;;;;;;5060255;28;20033;-71
2021/05/23 07:09:00;;;;;;;6.45;3.97;;;13.70;69.70;;;;;;5058156;28;20033;-70
2021/05/23 07:11:27;;;;;;;7.95;4.40;;;13.80;70.00;;;;;;5062450;28;20107;-67
2021/05/23 07:13:54;;;;;;;6.97;4.75;;;13.80;70.20;;;;;;5056937;28;20021;-72
2021/05/23 07:16:21;;;;;;;7.80;4.13;;;13.80;70.70;;;;;;5061838;28;20044;-71
2021/05/23 07:18:48;;;;;;;7.93;4.68;;;13.90;71.10;;;;;;5054854;28;20071;-70
2021/05/23 07:21:14;;;;;;;11.30;5.10;;;13.90;71.10;;;;;;5034910;28;20009;-72
2021/05/23 07:23:41;;;;;;;6.35;3.63;;;13.90;71.20;;;;;;5059219;28;20514;-72
2021/05/23 07:26:07;;;;;;;8.77;4.50;;;13.90;71.20;;;;;;5060198;28;20037;-72
2021/05/23 07:28:34;;;;;;;5.97;4.05;;;14.00;71.40;;;;;;5059750;28;20032;-71
2021/05/23 07:31:02;;;;;;;6.43;4.40;;;14.00;71.30;;;;;;5055333;28;20021;-72
2021/05/23 07:33:28;;;;;;;7.88;4.72;;;14.00;71.40;;;;;;5059956;28;20033;-72
2021/05/23 07:35:55;;;;;;;8.65;3.92;;;14.10;71.40;;;;;;5055464;28;20039;-73
2021/05/23 07:38:22;;;;;;;5.68;3.80;;;14.10;71.40;;;;;;5060021;28;20509;-72
2021/05/23 07:40:49;;;;;;;6.05;3.97;;;14.20;71.50;;;;;;5056818;28;20732;-72
2021/05/23 07:43:16;;;;;;;5.72;3.35;;;14.20;71.50;;;;;;5054971;28;20380;-72
2021/05/23 07:45:42;;;;;;;7.63;4.78;;;14.20;71.50;;;;;;5058272;28;20040;-69
2021/05/23 07:48:09;;;;;;;9.02;4.90;;;14.30;71.60;;;;;;5056707;28;20017;-72
2021/05/23 07:50:35;;;;;;;7.68;5.18;;;14.30;71.60;;;;;;5061522;28;20028;-69
2021/05/23 07:53:02;;;;;;;7.63;5.10;;;14.30;71.60;;;;;;5051042;28;20029;-70
2021/05/23 07:55:29;;;;;;;6.05;4.45;;;14.40;71.60;;;;;;5064545;28;20099;-69
2021/05/23 07:57:55;;;;;;;8.80;5.25;;;14.50;71.60;;;;;;5058494;28;20032;-70
2021/05/23 08:00:22;;;;;;;6.47;5.15;;;14.50;71.70;;;;;;5063159;28;20024;-69
2021/05/23 08:02:48;;;;;;;6.75;4.47;;;14.50;71.80;;;;;;5059115;28;20025;-69
2021/05/23 08:05:15;;;;;;;5.95;4.22;;;14.60;71.70;;;;;;5061969;28;20101;-69
2021/05/23 08:07:42;;;;;;;8.80;4.65;;;14.70;71.40;;;;;;5061269;28;21371;-69
2021/05/23 08:10:10;;;;;;;9.88;6.55;;;14.70;70.80;;;;;;5063799;28;20063;-70
2021/05/23 08:12:37;;;;;;;7.28;3.90;;;14.80;70.20;;;;;;5061909;28;20021;-71
2021/05/23 08:15:05;;;;;;;6.32;4.30;;;14.80;69.50;;;;;;5061737;28;20061;-69
2021/05/23 08:17:31;;;;;;;8.00;4.93;;;14.80;68.90;;;;;;5060651;28;20099;-70
2021/05/23 08:19:58;;;;;;;7.13;4.20;;;14.90;68.40;;;;;;5063208;28;20035;-71
2021/05/23 08:22:24;;;;;;;4.40;4.00;;;14.90;68.00;;;;;;5058429;28;20020;-69
2021/05/23 08:24:52;;;;;;;6.93;3.50;;;15.00;68.20;;;;;;5060446;28;20045;-72
2021/05/23 08:27:18;;;;;;;3.85;3.17;;;15.00;68.10;;;;;;5062269;28;20538;-70
2021/05/23 08:29:45;;;;;;;5.03;3.30;;;15.10;67.70;;;;;;5064825;28;20632;-70
2021/05/23 08:32:11;;;;;;;6.13;3.55;;;15.20;68.10;;;;;;5066310;28;20033;-71
2021/05/23 08:34:38;;;;;;;4.63;3.40;;;15.20;68.50;;;;;;5066253;28;20059;-70
2021/05/23 08:37:04;;;;;;;4.55;4.07;;;15.30;68.70;;;;;;5071014;28;20021;-69
2021/05/23 08:39:31;;;;;;;7.22;4.70;;;15.30;68.40;;;;;;5067745;28;20712;-69
2021/05/23 08:41:58;;;;;;;7.05;4.78;;;15.40;67.70;;;;;;5062603;28;20051;-71
2021/05/23 08:44:24;;;;;;;6.10;4.18;;;15.50;67.40;;;;;;5068974;28;20108;-72
2021/05/23 08:46:52;;;;;;;4.38;3.42;;;15.50;67.50;;;;;;5066952;28;20029;-72
2021/05/23 08:49:21;;;;;;;5.75;4.03;;;15.60;67.20;;;;;;5053282;28;20114;-71
2021/05/23 08:51:49;;;;;;;5.38;3.63;;;15.70;66.90;;;;;;5066964;28;20368;-70
2021/05/23 08:54:16;;;;;;;4.53;3.33;;;15.70;67.10;;;;;;5069759;28;20058;-71
2021/05/23 08:56:44;;;;;;;5.38;4.88;;;15.80;67.10;;;;;;5066172;28;20047;-70
2021/05/23 08:59:12;;;;;;;5.22;3.92;;;15.80;66.80;;;;;;5068561;28;20020;-71
2021/05/23 09:01:39;;;;;;;4.95;4.05;;;15.90;66.40;;;;;;5053119;28;20017;-71
2021/05/23 09:04:09;;;;;;;10.20;4.32;;;16.00;66.40;;;;;;5071117;28;20021;-72
2021/05/23 09:06:37;;;;;;;9.15;4.30;;;16.00;66.40;;;;;;5066074;28;20019;-71
2021/05/23 09:09:06;;;;;;;6.72;4.10;;;16.10;66.50;;;;;;5067155;28;20102;-70
2021/05/23 09:11:34;;;;;;;7.07;3.92;;;16.20;66.70;;;;;;5065446;28;20062;-72
2021/05/23 09:14:01;;;;;;;4.20;3.00;;;16.30;67.70;;;;;;5066649;28;20511;-72
2021/05/23 09:16:38;;;;;;;5.68;3.72;;;16.30;67.70;;;;;;5064114;28;20958;-71
2021/05/23 09:19:04;;;;;;;6.13;3.78;;;16.40;67.50;;;;;;5065697;28;20027;-74
2021/05/23 09:21:36;;;;;;;26.88;19.48;;;16.50;68.30;;;;;;5067616;28;20453;-71
2021/05/23 09:24:06;;;;;;;17.48;12.65;;;16.60;68.90;;;;;;5052202;28;20054;-71
2021/05/23 09:26:45;;;;;;;10.40;7.47;;;16.70;70.20;;;;;;5069702;28;20112;-74
2021/05/23 09:29:15;;;;;;;9.85;6.35;;;16.80;69.60;;;;;;5058202;28;20527;-72
2021/05/23 09:31:45;;;;;;;10.02;6.00;;;16.90;70.00;;;;;;5069111;28;20021;-71
2021/05/23 09:34:27;;;;;;;7.85;5.70;;;17.00;70.10;;;;;;5063044;28;20557;-71
2021/05/23 09:36:54;;;;;;;5.55;4.65;;;17.10;70.00;;;;;;5065980;28;20035;-78
2021/05/23 09:39:21;;;;;;;5.60;3.45;;;17.20;70.10;;;;;;5069879;28;20032;-73
2021/05/23 09:41:48;;;;;;;5.18;3.63;;;17.30;69.90;;;;;;5064120;28;20028;-71
2021/05/23 09:44:23;;;;;;;3.30;3.00;;;17.50;69.90;;;;;;5069895;28;20013;-68
2021/05/23 09:47:09;;;;;;;155.32;136.48;;;17.60;69.90;;;;;;5066247;28;20071;-72
2021/05/23 09:49:44;;;;;;;97.32;81.95;;;17.90;66.70;;;;;;5064931;28;20071;-72
2021/05/23 09:52:13;;;;;;;60.05;52.72;;;18.10;67.30;;;;;;5065050;28;20036;-72
2021/05/23 09:54:44;;;;;;;41.35;32.58;;;18.20;66.20;;;;;;5071277;28;20502;-72
2021/05/23 09:57:22;;;;;;;28.15;24.20;;;18.30;66.70;;;;;;5071284;28;20020;-71
2021/05/23 10:00:09;;;;;;;17.85;14.75;;;18.40;67.00;;;;;;5067658;28;20391;-70
2021/05/23 10:02:54;;;;;;;13.48;10.40;;;18.50;66.70;;;;;;5067337;28;20032;-69
2021/05/23 10:05:22;;;;;;;31.48;25.90;;;18.60;65.00;;;;;;5068020;28;20024;-72
2021/05/23 10:07:49;;;;;;;10.50;8.30;;;18.70;64.80;;;;;;5066145;28;20032;-71
2021/05/23 10:10:16;;;;;;;8.57;4.97;;;18.80;64.30;;;;;;5061115;28;21058;-69
2021/05/23 10:12:44;;;;;;;4.10;3.70;;;19.00;63.60;;;;;;5045383;28;20047;-70
2021/05/23 10:15:12;;;;;;;6.70;2.40;;;19.10;62.60;;;;;;5056113;28;20033;-69
2021/05/23 10:17:40;;;;;;;4.10;1.67;;;19.20;62.00;;;;;;5067811;28;20036;-74
2021/05/23 10:20:09;;;;;;;1.98;1.50;;;19.30;60.90;;;;;;5066063;28;20084;-72
2021/05/23 10:22:38;;;;;;;1.67;1.30;;;19.40;60.60;;;;;;5063401;28;20028;-70
2021/05/23 10:25:09;;;;;;;4.70;1.63;;;19.60;60.50;;;;;;5065208;28;20064;-69
2021/05/23 10:27:39;;;;;;;3.03;1.75;;;19.80;60.80;;;;;;5060431;28;20044;-67
2021/05/23 10:30:08;;;;;;;2.50;1.70;;;19.80;61.40;;;;;;5064556;28;20395;-74
2021/05/23 10:32:37;;;;;;;2.92;2.08;;;19.90;60.60;;;;;;5063373;28;20009;-71
2021/05/23 10:35:21;;;;;;;5.65;2.92;;;20.00;59.80;;;;;;5062422;28;20031;-71
2021/05/23 10:37:51;;;;;;;9.00;5.60;;;20.10;59.70;;;;;;5055749;28;20021;-72
2021/05/23 10:40:30;;;;;;;4.43;3.33;;;20.30;60.10;;;;;;5052137;28;20514;-71
2021/05/23 10:42:59;;;;;;;7.25;3.85;;;20.40;60.10;;;;;;5066263;28;20024;-69
2021/05/23 10:45:30;;;;;;;5.25;2.60;;;20.40;60.00;;;;;;5066999;28;20107;-70
2021/05/23 10:47:58;;;;;;;4.00;2.95;;;20.60;59.50;;;;;;5048845;28;20029;-67
2021/05/23 10:50:32;;;;;;;7.40;4.45;;;20.70;59.90;;;;;;5063198;28;20418;-72
2021/05/23 10:52:59;;;;;;;9.85;5.55;;;20.80;60.70;;;;;;5066866;28;20035;-69
2021/05/23 10:55:25;;;;;;;5.55;4.10;;;20.80;60.30;;;;;;5064552;28;20530;-69
2021/05/23 10:57:54;;;;;;;3.88;3.15;;;20.90;60.00;;;;;;5059289;28;20058;-73
2021/05/23 11:00:23;;;;;;;3.92;2.38;;;21.00;59.90;;;;;;5058293;28;20150;-71
2021/05/23 11:02:51;;;;;;;1.80;1.55;;;21.10;58.60;;;;;;5063307;28;20558;-72
2021/05/23 11:05:24;;;;;;;5.32;1.70;;;21.20;58.40;;;;;;5063421;28;20020;-74
2021/05/23 11:07:58;;;;;;;1.98;1.42;;;21.30;57.90;;;;;;5065231;28;20024;-74
2021/05/23 11:10:41;;;;;;;4.38;0.82;;;21.40;56.70;;;;;;5069876;28;20094;-73
2021/05/23 11:13:09;;;;;;;3.03;1.13;;;21.50;54.90;;;;;;5063936;28;20024;-68
2021/05/23 11:15:44;;;;;;;0.90;0.47;;;21.90;47.40;;;;;;5062952;28;20013;-70
2021/05/23 11:18:21;;;;;;;0.90;0.30;;;22.60;42.30;;;;;;5066829;28;20384;-68
2021/05/23 11:20:59;;;;;;;2.15;0.50;;;23.30;41.50;;;;;;5061674;28;20443;-72
2021/05/23 11:23:27;;;;;;;0.50;0.30;;;23.80;40.90;;;;;;5065157;28;20021;-71
2021/05/23 11:26:16;;;;;;;0.88;0.30;;;24.20;39.50;;;;;;5068650;28;20040;-69
2021/05/23 11:28:59;;;;;;;25.48;21.52;;;24.60;37.80;;;;;;5067096;28;20043;-72
2021/05/23 11:31:27;;;;;;;25.65;21.02;;;24.80;37.10;;;;;;5072308;28;20111;-72
2021/05/23 11:33:55;;;;;;;3.70;3.08;;;25.00;36.40;;;;;;5069151;28;20070;-71
2021/05/23 11:36:35;;;;;;;1.30;0.60;;;25.20;36.80;;;;;;5067628;28;20107;-74
2021/05/23 11:39:06;;;;;;;3.10;0.65;;;25.20;33.90;;;;;;5070211;28;20013;-70
2021/05/23 11:41:36;;;;;;;1.95;0.50;;;25.40;35.20;;;;;;5068847;28;20024;-70
2021/05/23 11:44:05;;;;;;;0.98;0.60;;;25.50;34.90;;;;;;5071578;28;20036;-72
2021/05/23 11:46:32;;;;;;;0.93;0.40;;;25.70;34.50;;;;;;5052545;28;20146;-74
2021/05/23 11:48:59;;;;;;;0.93;0.40;;;25.80;35.50;;;;;;5068655;28;20523;-70
2021/05/23 11:51:29;;;;;;;1.95;0.80;;;25.80;35.30;;;;;;5066597;28;20051;-71
2021/05/23 11:53:58;;;;;;;1.50;0.80;;;25.90;36.70;;;;;;5071730;28;20396;-70
2021/05/23 11:56:30;;;;;;;2.17;0.80;;;25.80;37.10;;;;;;5071904;28;20061;-72
2021/05/23 11:59:01;;;;;;;2.42;1.00;;;25.80;36.70;;;;;;5064771;28;20396;-75
2021/05/23 12:01:31;;;;;;;2.47;1.27;;;25.80;37.30;;;;;;5067920;28;20016;-78
2021/05/23 12:04:12;;;;;;;1.52;0.90;;;25.80;37.70;;;;;;5063279;28;20025;-76
2021/05/23 12:06:49;;;;;;;1.05;0.80;;;25.80;38.00;;;;;;5068278;28;20024;-72
2021/05/23 12:09:18;;;;;;;3.53;0.80;;;25.80;35.90;;;;;;5065981;28;20507;-72
2021/05/23 12:11:46;;;;;;;2.08;1.08;;;25.90;35.10;;;;;;5066277;28;20095;-69
2021/05/23 12:14:24;;;;;;;2.58;0.70;;;25.90;35.20;;;;;;5072279;28;20044;-74
2021/05/23 12:17:09;;;;;;;0.95;0.50;;;26.00;36.70;;;;;;5070612;28;20534;-68
2021/05/23 12:19:49;;;;;;;110.05;98.55;;;26.10;34.50;;;;;;5066881;28;20024;-70
2021/05/23 12:22:37;;;;;;;31.67;18.27;;;26.20;34.20;;;;;;5066842;28;20108;-68
2021/05/23 12:25:04;;;;;;;16.98;9.73;;;26.20;34.00;;;;;;5062541;28;20045;-68
2021/05/23 12:27:40;;;;;;;3.50;1.88;;;26.30;34.60;;;;;;5067969;28;20035;-71
2021/05/23 12:30:17;;;;;;;1.15;0.82;;;26.30;33.40;;;;;;5062034;28;20037;-74
2021/05/23 12:32:45;;;;;;;1.48;0.80;;;26.30;33.20;;;;;;5065230;28;20060;-72
2021/05/23 12:35:27;;;;;;;1.27;0.80;;;26.30;33.60;;;;;;5069634;28;20470;-71
2021/05/23 12:38:09;;;;;;;1.20;0.80;;;26.40;34.50;;;;;;5066459;28;20017;-71
2021/05/23 12:40:45;;;;;;;2.72;0.95;;;26.30;33.50;;;;;;5068232;28;20454;-72
2021/05/23 12:43:18;;;;;;;1.23;0.82;;;26.40;33.90;;;;;;5065901;28;20029;-71
2021/05/23 12:45:54;;;;;;;15.55;13.13;;;26.40;33.70;;;;;;5068387;28;20021;-72
2021/05/23 12:48:45;;;;;;;5.65;3.90;;;26.40;34.90;;;;;;5071774;28;20026;-71
2021/05/23 12:51:14;;;;;;;6.07;2.15;;;26.30;36.10;;;;;;5063809;28;20048;-74
2021/05/23 12:54:02;;;;;;;4.20;2.00;;;26.20;36.10;;;;;;5068928;28;20020;-72
2021/05/23 12:56:34;;;;;;;4.80;2.45;;;26.10;35.80;;;;;;5059818;28;20471;-67